Time;durP1;ratioP1;P1;durP2;ratioP2;P2;SDS_P1;SDS_P2;PMS_P1;PMS_P2;Temp;Humidity;BMP_temperature;BMP_pressure;BME280_temperature;BME280_humidity;BME280_pressure;Samples;Min_cycle;Max_cycle;Signal;HPM_P1;HPM_P2
2022/09/03 00:00:12;;;;;;;2.80;1.05;;;;;;;;;;4974309;28;20117;-47
2022/09/03 00:02:42;;;;;;;4.60;1.73;;;;;;;;;;4974063;28;20431;-47
2022/09/03 00:05:13;;;;;;;2.85;1.25;;;;;;;;;;4974330;28;20051;-53
2022/09/03 00:07:44;;;;;;;2.75;1.60;;;;;;;;;;4992222;28;20050;-47
2022/09/03 00:10:14;;;;;;;4.88;1.35;;;;;;;;;;4994097;28;20065;-47
2022/09/03 00:12:44;;;;;;;3.50;1.40;;;;;;;;;;4993971;28;20080;-47
2022/09/03 00:15:12;;;;;;;4.35;1.45;;;;;;;;;;4993983;28;20058;-50
2022/09/03 00:17:42;;;;;;;3.38;1.77;;;;;;;;;;5011470;28;20058;-50
2022/09/03 00:20:17;;;;;;;2.63;1.25;;;;;;;;;;5013303;28;20053;-49
2022/09/03 00:22:48;;;;;;;4.28;2.17;;;;;;;;;;5012985;28;20140;-47
2022/09/03 00:25:18;;;;;;;3.53;1.38;;;;;;;;;;5012861;28;20426;-47
2022/09/03 00:27:49;;;;;;;2.50;1.27;;;;;;;;;;5013404;28;20046;-50
2022/09/03 00:30:18;;;;;;;2.58;1.20;;;;;;;;;;4974151;28;20055;-50
2022/09/03 00:32:47;;;;;;;2.05;1.02;;;;;;;;;;5003715;28;20054;-49
2022/09/03 00:35:20;;;;;;;2.17;0.90;;;;;;;;;;5012911;28;20459;-49
2022/09/03 00:37:48;;;;;;;2.63;1.10;;;;;;;;;;5013384;28;20058;-49
2022/09/03 00:40:21;;;;;;;3.28;1.25;;;;;;;;;;5003506;28;20078;-49
2022/09/03 00:42:55;;;;;;;2.47;1.10;;;;;;;;;;4993818;28;20116;-49
2022/09/03 00:45:28;;;;;;;4.43;1.15;;;;;;;;;;4993332;28;20116;-49
2022/09/03 00:48:11;;;;;;;3.13;1.23;;;;;;;;;;4993559;28;20054;-51
2022/09/03 00:50:46;;;;;;;2.83;1.30;;;;;;;;;;4993788;28;20054;-51
2022/09/03 00:53:17;;;;;;;3.03;1.37;;;;;;;;;;4982209;28;20063;-49
2022/09/03 00:55:57;;;;;;;3.05;1.20;;;;;;;;;;4974101;28;20047;-50
2022/09/03 00:58:54;;;;;;;2.28;1.02;;;;;;;;;;4974035;28;20062;-49
2022/09/03 01:01:24;;;;;;;3.42;1.10;;;;;;;;;;4974898;28;20357;-48
2022/09/03 01:03:57;;;;;;;1.90;0.80;;;;;;;;;;4990626;28;20065;-49
2022/09/03 01:06:29;;;;;;;2.08;1.00;;;;;;;;;;4993434;28;20042;-50
2022/09/03 01:09:03;;;;;;;3.20;1.08;;;;;;;;;;4995954;28;20391;-49
2022/09/03 01:11:37;;;;;;;2.40;1.35;;;;;;;;;;4997034;28;20061;-50
2022/09/03 01:14:11;;;;;;;2.53;0.93;;;;;;;;;;4996575;28;20086;-49
2022/09/03 01:16:43;;;;;;;2.42;1.17;;;;;;;;;;5006472;28;20068;-53
2022/09/03 01:19:15;;;;;;;4.32;1.42;;;;;;;;;;5016406;28;20133;-50
2022/09/03 01:22:04;;;;;;;3.67;1.40;;;;;;;;;;5016294;28;20459;-49
2022/09/03 01:24:49;;;;;;;4.43;1.05;;;;;;;;;;4996884;28;20050;-51
2022/09/03 01:27:21;;;;;;;1.83;0.98;;;;;;;;;;4996589;28;20046;-48
2022/09/03 01:29:54;;;;;;;3.42;1.00;;;;;;;;;;4980738;28;20051;-49
2022/09/03 01:32:28;;;;;;;1.42;0.60;;;;;;;;;;4977077;28;20055;-49
2022/09/03 01:34:59;;;;;;;1.05;0.63;;;;;;;;;;4976807;28;20407;-49
2022/09/03 01:37:32;;;;;;;2.60;0.88;;;;;;;;;;4976902;28;20741;-51
2022/09/03 01:40:05;;;;;;;1.65;0.57;;;;;;;;;;4976979;28;20042;-51
2022/09/03 01:42:37;;;;;;;2.00;0.90;;;;;;;;;;4977327;28;20073;-48
2022/09/03 01:45:20;;;;;;;2.65;1.00;;;;;;;;;;4977093;28;20051;-50
2022/09/03 01:47:54;;;;;;;1.45;0.70;;;;;;;;;;4977000;28;20082;-50
2022/09/03 01:50:26;;;;;;;2.28;0.77;;;;;;;;;;4977062;28;20054;-48
2022/09/03 01:52:56;;;;;;;1.55;0.85;;;;;;;;;;4976795;28;20125;-50
2022/09/03 01:55:29;;;;;;;3.15;1.10;;;;;;;;;;4976969;28;20073;-48
2022/09/03 01:58:06;;;;;;;0.95;0.70;;;;;;;;;;4976879;28;20047;-48
2022/09/03 02:00:35;;;;;;;1.67;0.57;;;;;;;;;;4957501;28;20114;-49
2022/09/03 02:03:04;;;;;;;0.77;0.55;;;;;;;;;;4957289;29;20058;-48
2022/09/03 02:05:33;;;;;;;1.05;0.60;;;;;;;;;;4957393;28;20114;-51
2022/09/03 02:08:01;;;;;;;1.25;0.55;;;;;;;;;;4957140;29;20074;-48
2022/09/03 02:10:31;;;;;;;1.77;0.52;;;;;;;;;;4957126;29;20137;-51
2022/09/03 02:13:04;;;;;;;1.40;0.68;;;;;;;;;;4974341;28;20058;-48
2022/09/03 02:15:34;;;;;;;1.67;0.60;;;;;;;;;;4976340;28;20054;-51
2022/09/03 02:18:05;;;;;;;2.10;0.70;;;;;;;;;;4995987;28;20076;-49
2022/09/03 02:20:32;;;;;;;1.15;0.52;;;;;;;;;;4994717;28;20053;-48
2022/09/03 02:22:59;;;;;;;1.77;0.60;;;;;;;;;;5004597;28;20072;-52
2022/09/03 02:25:31;;;;;;;0.70;0.50;;;;;;;;;;5015168;28;20064;-48
2022/09/03 02:27:59;;;;;;;2.05;0.47;;;;;;;;;;5013967;28;20046;-50
2022/09/03 02:30:30;;;;;;;0.73;0.40;;;;;;;;;;4995064;28;20054;-48
2022/09/03 02:33:00;;;;;;;0.77;0.50;;;;;;;;;;4995565;28;20065;-51
2022/09/03 02:35:30;;;;;;;1.48;0.50;;;;;;;;;;4995645;28;20050;-49
2022/09/03 02:38:00;;;;;;;0.57;0.30;;;;;;;;;;4995549;28;20046;-49
2022/09/03 02:40:30;;;;;;;0.77;0.40;;;;;;;;;;4994910;28;20106;-48
2022/09/03 02:43:00;;;;;;;1.58;0.80;;;;;;;;;;4995200;28;20394;-48
2022/09/03 02:45:31;;;;;;;0.95;0.38;;;;;;;;;;4995158;28;20078;-49
2022/09/03 02:47:59;;;;;;;1.17;0.50;;;;;;;;;;4995112;28;20436;-49
2022/09/03 02:50:29;;;;;;;0.73;0.50;;;;;;;;;;4995155;28;20137;-50
2022/09/03 02:53:04;;;;;;;2.17;0.43;;;;;;;;;;4986164;28;20054;-51
2022/09/03 02:55:32;;;;;;;1.90;0.70;;;;;;;;;;4986088;28;20062;-49
2022/09/03 02:57:59;;;;;;;1.60;0.65;;;;;;;;;;4995124;28;20051;-49
2022/09/03 03:00:27;;;;;;;1.20;0.40;;;;;;;;;;4994488;28;20054;-51
2022/09/03 03:02:55;;;;;;;1.63;0.52;;;;;;;;;;4994796;28;20050;-49
2022/09/03 03:05:26;;;;;;;1.33;0.50;;;;;;;;;;4994575;28;20102;-48
2022/09/03 03:07:57;;;;;;;1.92;0.50;;;;;;;;;;4995069;28;20050;-51
2022/09/03 03:10:26;;;;;;;1.35;0.50;;;;;;;;;;4994898;28;20137;-49
2022/09/03 03:12:54;;;;;;;1.05;0.50;;;;;;;;;;4994596;28;20531;-50
2022/09/03 03:15:21;;;;;;;0.95;0.50;;;;;;;;;;4994546;28;20089;-49
2022/09/03 03:17:49;;;;;;;2.38;0.75;;;;;;;;;;4994287;28;20108;-48
2022/09/03 03:20:17;;;;;;;0.40;0.40;;;;;;;;;;4994310;28;20050;-48
2022/09/03 03:22:47;;;;;;;3.42;0.68;;;;;;;;;;4994379;28;20065;-52
2022/09/03 03:25:14;;;;;;;1.15;0.52;;;;;;;;;;4995018;28;20069;-49
2022/09/03 03:27:46;;;;;;;1.65;0.30;;;;;;;;;;4994279;28;20375;-49
2022/09/03 03:30:13;;;;;;;3.15;0.47;;;;;;;;;;4994210;28;20054;-49
2022/09/03 03:32:40;;;;;;;1.75;0.60;;;;;;;;;;4994091;28;20747;-48
2022/09/03 03:35:07;;;;;;;1.33;0.55;;;;;;;;;;4994110;28;20053;-48
2022/09/03 03:37:35;;;;;;;1.73;0.47;;;;;;;;;;4994348;28;20054;-49
2022/09/03 03:40:03;;;;;;;1.13;0.40;;;;;;;;;;4994340;28;20053;-50
2022/09/03 03:42:32;;;;;;;2.05;0.30;;;;;;;;;;4993916;28;20058;-48
2022/09/03 03:45:02;;;;;;;0.98;0.47;;;;;;;;;;4994136;28;20089;-49
2022/09/03 03:47:29;;;;;;;1.10;0.50;;;;;;;;;;4993865;28;20058;-49
2022/09/03 03:49:58;;;;;;;1.65;0.50;;;;;;;;;;4993822;28;20053;-51
2022/09/03 03:52:24;;;;;;;0.88;0.35;;;;;;;;;;4993577;28;20506;-48
2022/09/03 03:54:53;;;;;;;0.75;0.50;;;;;;;;;;4993965;28;20383;-49
2022/09/03 03:57:20;;;;;;;1.00;0.55;;;;;;;;;;4994165;28;20108;-48
2022/09/03 03:59:48;;;;;;;1.23;0.50;;;;;;;;;;4994139;28;20058;-48
2022/09/03 04:02:16;;;;;;;3.38;0.88;;;;;;;;;;4994107;28;20054;-48
2022/09/03 04:04:42;;;;;;;0.88;0.40;;;;;;;;;;4994041;28;20046;-47
2022/09/03 04:07:10;;;;;;;0.65;0.25;;;;;;;;;;4993904;28;20042;-48
2022/09/03 04:09:37;;;;;;;1.20;0.50;;;;;;;;;;4993815;28;20467;-48
2022/09/03 04:12:07;;;;;;;1.40;0.60;;;;;;;;;;4993973;28;20056;-49
2022/09/03 04:14:35;;;;;;;0.90;0.50;;;;;;;;;;4993939;28;20069;-52
2022/09/03 04:17:03;;;;;;;0.73;0.40;;;;;;;;;;4993917;28;20073;-48
2022/09/03 04:19:32;;;;;;;0.93;0.50;;;;;;;;;;4994076;28;20086;-49
2022/09/03 04:21:59;;;;;;;1.85;0.70;;;;;;;;;;4993380;28;20050;-48
2022/09/03 04:24:27;;;;;;;1.65;0.60;;;;;;;;;;4993685;28;20483;-48
2022/09/03 04:26:54;;;;;;;1.33;0.50;;;;;;;;;;4993616;28;20050;-48
2022/09/03 04:29:22;;;;;;;2.05;0.70;;;;;;;;;;4993738;28;20054;-49
2022/09/03 04:34:32;;;;;;;1.50;0.70;;;;;;;;;;4992971;28;20451;-51
2022/09/03 04:37:02;;;;;;;0.98;0.52;;;;;;;;;;4993759;28;20046;-48
2022/09/03 04:39:29;;;;;;;1.52;0.63;;;;;;;;;;4993272;28;20344;-51
2022/09/03 04:41:57;;;;;;;1.00;0.60;;;;;;;;;;4993489;28;20357;-51
2022/09/03 04:44:25;;;;;;;2.88;0.82;;;;;;;;;;4997756;28;20116;-49
2022/09/03 04:46:53;;;;;;;1.45;0.80;;;;;;;;;;4997416;28;20050;-49
2022/09/03 04:49:21;;;;;;;1.17;0.73;;;;;;;;;;4996441;28;20073;-49
2022/09/03 04:51:48;;;;;;;1.92;1.00;;;;;;;;;;4997263;28;20058;-50
2022/09/03 04:54:18;;;;;;;1.67;0.88;;;;;;;;;;4978031;28;20055;-50
2022/09/03 04:56:45;;;;;;;4.15;1.17;;;;;;;;;;4977762;28;20055;-51
2022/09/03 04:59:13;;;;;;;2.05;1.00;;;;;;;;;;4977831;28;20066;-48
2022/09/03 05:01:41;;;;;;;1.50;0.80;;;;;;;;;;4977774;28;20129;-50
2022/09/03 05:04:08;;;;;;;2.88;1.00;;;;;;;;;;4977887;28;20070;-48
2022/09/03 05:06:37;;;;;;;2.47;0.85;;;;;;;;;;4977699;28;20069;-48
2022/09/03 05:09:05;;;;;;;2.05;0.75;;;;;;;;;;4977500;28;20047;-49
2022/09/03 05:11:33;;;;;;;3.40;0.65;;;;;;;;;;4983523;28;20061;-52
2022/09/03 05:14:01;;;;;;;2.00;0.50;;;;;;;;;;4997210;28;20058;-49
2022/09/03 05:16:31;;;;;;;2.00;0.98;;;;;;;;;;5004724;28;20050;-51
2022/09/03 05:19:02;;;;;;;2.30;0.65;;;;;;;;;;5016630;28;20077;-48
2022/09/03 05:21:29;;;;;;;0.93;0.55;;;;;;;;;;5016663;28;20072;-49
2022/09/03 05:23:56;;;;;;;3.42;0.57;;;;;;;;;;5015936;28;20064;-50
2022/09/03 05:26:24;;;;;;;1.38;0.50;;;;;;;;;;5016494;28;20046;-49
2022/09/03 05:28:55;;;;;;;1.83;0.80;;;;;;;;;;5007963;28;20047;-49
2022/09/03 05:31:25;;;;;;;2.80;0.90;;;;;;;;;;4996981;28;20054;-52
2022/09/03 05:33:56;;;;;;;3.20;1.08;;;;;;;;;;4996855;28;20054;-48
2022/09/03 05:36:23;;;;;;;3.80;1.42;;;;;;;;;;4996779;28;20050;-49
2022/09/03 05:38:52;;;;;;;4.07;0.90;;;;;;;;;;4996753;28;20132;-50
2022/09/03 05:41:21;;;;;;;1.55;0.80;;;;;;;;;;4996554;28;20062;-51
2022/09/03 05:43:52;;;;;;;2.88;1.00;;;;;;;;;;4989234;28;20379;-48
2022/09/03 05:46:26;;;;;;;3.05;1.10;;;;;;;;;;4976677;28;20059;-48
2022/09/03 05:48:53;;;;;;;1.75;0.80;;;;;;;;;;4976934;28;20051;-48
2022/09/03 05:51:23;;;;;;;0.90;0.60;;;;;;;;;;4976643;28;20125;-48
2022/09/03 05:53:52;;;;;;;0.77;0.40;;;;;;;;;;4992738;28;20047;-48
2022/09/03 05:56:20;;;;;;;1.38;0.70;;;;;;;;;;4996097;28;20100;-48
2022/09/03 05:58:49;;;;;;;1.65;0.50;;;;;;;;;;4996273;28;20061;-48
2022/09/03 06:01:18;;;;;;;0.75;0.30;;;;;;;;;;4996217;28;20080;-49
2022/09/03 06:03:53;;;;;;;2.05;0.40;;;;;;;;;;4996315;28;20057;-49
2022/09/03 06:06:24;;;;;;;1.40;0.40;;;;;;;;;;4996125;28;20069;-49
2022/09/03 06:08:53;;;;;;;2.75;0.40;;;;;;;;;;4995767;28;20455;-49
2022/09/03 06:11:25;;;;;;;0.93;0.40;;;;;;;;;;4995915;28;20050;-48
2022/09/03 06:13:52;;;;;;;1.40;0.30;;;;;;;;;;4995850;28;20061;-48
2022/09/03 06:16:20;;;;;;;2.67;0.40;;;;;;;;;;4995720;28;20050;-51
2022/09/03 06:18:50;;;;;;;3.50;0.40;;;;;;;;;;4995859;28;20057;-49
2022/09/03 06:21:17;;;;;;;0.82;0.40;;;;;;;;;;4995606;28;20046;-48
2022/09/03 06:23:49;;;;;;;0.43;0.30;;;;;;;;;;4995019;28;20534;-49
2022/09/03 06:26:16;;;;;;;2.60;0.73;;;;;;;;;;4995714;28;20061;-50
2022/09/03 06:28:47;;;;;;;1.17;0.40;;;;;;;;;;4995504;28;20053;-49
2022/09/03 06:31:15;;;;;;;0.95;0.40;;;;;;;;;;4995307;28;20054;-48
2022/09/03 06:33:43;;;;;;;3.88;0.60;;;;;;;;;;4995317;28;20364;-48
2022/09/03 06:36:13;;;;;;;1.63;0.50;;;;;;;;;;4995497;28;20064;-48
2022/09/03 06:38:40;;;;;;;0.70;0.40;;;;;;;;;;4995546;28;20133;-48
2022/09/03 06:41:07;;;;;;;3.95;0.50;;;;;;;;;;4994736;28;20066;-49
2022/09/03 06:43:34;;;;;;;0.40;0.30;;;;;;;;;;4994979;28;20058;-50
2022/09/03 06:46:02;;;;;;;0.85;0.40;;;;;;;;;;4995168;28;20054;-49
2022/09/03 06:48:30;;;;;;;0.70;0.30;;;;;;;;;;4994734;28;20460;-49
2022/09/03 06:50:57;;;;;;;0.50;0.20;;;;;;;;;;4995128;28;20377;-48
2022/09/03 06:53:25;;;;;;;3.65;0.40;;;;;;;;;;4994706;28;20326;-49
2022/09/03 06:55:56;;;;;;;0.60;0.38;;;;;;;;;;4994491;28;20050;-49
2022/09/03 06:58:22;;;;;;;0.95;0.40;;;;;;;;;;4995300;28;20061;-48
2022/09/03 07:00:52;;;;;;;1.58;0.70;;;;;;;;;;4994602;28;20058;-48
2022/09/03 07:03:19;;;;;;;3.15;1.08;;;;;;;;;;4994593;28;20058;-48
2022/09/03 07:05:45;;;;;;;0.98;0.60;;;;;;;;;;4994381;28;20069;-49
2022/09/03 07:08:12;;;;;;;0.73;0.40;;;;;;;;;;4994867;28;20057;-48
2022/09/03 07:10:39;;;;;;;0.98;0.35;;;;;;;;;;4994400;28;20534;-50
2022/09/03 07:13:06;;;;;;;1.98;0.50;;;;;;;;;;4994549;28;20058;-50
2022/09/03 07:15:32;;;;;;;2.25;0.30;;;;;;;;;;4995170;28;20081;-49
2022/09/03 07:17:59;;;;;;;0.90;0.20;;;;;;;;;;5014171;28;20475;-48
2022/09/03 07:20:26;;;;;;;2.63;0.40;;;;;;;;;;5014131;28;20050;-48
2022/09/03 07:22:54;;;;;;;0.73;0.10;;;;;;;;;;5013501;28;20058;-49
2022/09/03 07:25:20;;;;;;;0.77;0.35;;;;;;;;;;5013487;28;20058;-48
2022/09/03 07:27:49;;;;;;;0.20;0.20;;;;;;;;;;5013327;28;20050;-49
2022/09/03 07:30:18;;;;;;;1.42;0.20;;;;;;;;;;4974297;28;20082;-48
2022/09/03 07:32:45;;;;;;;0.93;0.25;;;;;;;;;;5004027;28;20092;-51
2022/09/03 07:35:11;;;;;;;1.13;0.30;;;;;;;;;;5012853;28;20509;-50
2022/09/03 07:37:40;;;;;;;0.52;0.30;;;;;;;;;;4995107;28;20058;-49
2022/09/03 07:40:07;;;;;;;2.33;0.30;;;;;;;;;;4993448;28;20120;-49
2022/09/03 07:42:34;;;;;;;1.42;0.40;;;;;;;;;;4993248;28;20137;-49
2022/09/03 07:45:04;;;;;;;0.70;0.38;;;;;;;;;;4993551;28;20058;-49
2022/09/03 07:47:31;;;;;;;1.05;0.40;;;;;;;;;;4993419;28;20054;-48
2022/09/03 07:49:57;;;;;;;2.53;0.38;;;;;;;;;;4993496;28;20042;-48
2022/09/03 07:52:24;;;;;;;1.50;0.43;;;;;;;;;;4993495;28;20058;-48
2022/09/03 07:54:50;;;;;;;1.55;0.50;;;;;;;;;;4993161;28;20367;-51
2022/09/03 07:57:16;;;;;;;1.33;0.30;;;;;;;;;;4992890;28;20064;-50
2022/09/03 07:59:42;;;;;;;1.70;0.60;;;;;;;;;;4992960;28;20057;-48
2022/09/03 08:02:10;;;;;;;0.68;0.30;;;;;;;;;;4993053;28;20046;-51
2022/09/03 08:04:37;;;;;;;0.70;0.30;;;;;;;;;;4992901;28;20061;-50
2022/09/03 08:07:04;;;;;;;1.20;0.50;;;;;;;;;;4992584;28;20553;-48
2022/09/03 08:09:31;;;;;;;2.45;0.38;;;;;;;;;;4992204;28;20459;-52
2022/09/03 08:11:58;;;;;;;0.82;0.35;;;;;;;;;;4992202;28;20150;-50
2022/09/03 08:14:24;;;;;;;0.50;0.30;;;;;;;;;;4992621;28;20058;-49
2022/09/03 08:16:50;;;;;;;1.27;0.50;;;;;;;;;;5002406;28;20051;-50
2022/09/03 08:19:18;;;;;;;1.98;0.50;;;;;;;;;;5011736;28;20046;-49
2022/09/03 08:21:44;;;;;;;2.00;0.32;;;;;;;;;;5012080;28;20072;-48
2022/09/03 08:24:11;;;;;;;0.40;0.30;;;;;;;;;;4975001;28;1092813;-48
2022/09/03 08:26:40;;;;;;;0.40;0.30;;;;;;;;;;5013274;28;20050;-50
2022/09/03 08:29:06;;;;;;;1.85;0.35;;;;;;;;;;5001894;28;20458;-48
2022/09/03 08:31:33;;;;;;;1.65;0.43;;;;;;;;;;4993383;28;20061;-51
2022/09/03 08:34:05;;;;;;;2.70;0.50;;;;;;;;;;4993291;28;20062;-49
2022/09/03 08:36:33;;;;;;;0.45;0.22;;;;;;;;;;4993770;28;20389;-50
2022/09/03 08:39:03;;;;;;;0.57;0.30;;;;;;;;;;4993662;28;20050;-48
2022/09/03 08:41:35;;;;;;;0.75;0.30;;;;;;;;;;4973953;28;20087;-48
2022/09/03 08:44:09;;;;;;;0.60;0.22;;;;;;;;;;4973718;28;20392;-52
2022/09/03 08:46:41;;;;;;;0.80;0.40;;;;;;;;;;4973844;28;20054;-50
2022/09/03 08:49:09;;;;;;;0.47;0.20;;;;;;;;;;4973567;28;20061;-48
2022/09/03 08:51:39;;;;;;;0.35;0.20;;;;;;;;;;4973713;28;20256;-48
2022/09/03 08:54:07;;;;;;;0.50;0.38;;;;;;;;;;4991854;28;20064;-49
2022/09/03 08:56:36;;;;;;;1.05;0.22;;;;;;;;;;4993120;28;20050;-49
2022/09/03 08:59:03;;;;;;;1.17;0.30;;;;;;;;;;4992758;28;20093;-48
2022/09/03 09:01:36;;;;;;;1.05;0.40;;;;;;;;;;4993026;28;20481;-52
2022/09/03 09:04:08;;;;;;;0.32;0.30;;;;;;;;;;4993279;28;20046;-48
2022/09/03 09:06:35;;;;;;;0.85;0.47;;;;;;;;;;4993154;28;20058;-49
2022/09/03 09:09:07;;;;;;;0.47;0.28;;;;;;;;;;4992767;28;20379;-49
2022/09/03 09:11:40;;;;;;;2.10;0.40;;;;;;;;;;4993180;28;20054;-50
2022/09/03 09:14:10;;;;;;;1.25;0.30;;;;;;;;;;4992949;28;20058;-50
2022/09/03 09:16:41;;;;;;;0.63;0.30;;;;;;;;;;5002293;28;20050;-49
2022/09/03 09:19:13;;;;;;;0.52;0.20;;;;;;;;;;5012654;28;20459;-49
2022/09/03 09:21:45;;;;;;;1.83;0.30;;;;;;;;;;5012646;28;20100;-50
2022/09/03 09:24:22;;;;;;;1.50;0.30;;;;;;;;;;5012484;28;20066;-52
2022/09/03 09:26:49;;;;;;;1.63;0.35;;;;;;;;;;5012803;28;20050;-52
2022/09/03 09:29:15;;;;;;;0.80;0.28;;;;;;;;;;5001754;28;20053;-49
2022/09/03 09:31:43;;;;;;;0.52;0.30;;;;;;;;;;5002375;28;20145;-50
2022/09/03 09:34:09;;;;;;;1.15;0.35;;;;;;;;;;5015795;28;20458;-49
2022/09/03 09:36:41;;;;;;;0.82;0.30;;;;;;;;;;5016166;28;20056;-48
2022/09/03 09:39:08;;;;;;;1.52;0.40;;;;;;;;;;5015264;28;20058;-49
2022/09/03 09:41:36;;;;;;;0.50;0.30;;;;;;;;;;4996368;28;20054;-50
2022/09/03 09:44:04;;;;;;;0.82;0.38;;;;;;;;;;4996086;28;20065;-49
2022/09/03 09:46:34;;;;;;;1.95;0.20;;;;;;;;;;4995831;28;20058;-50
2022/09/03 09:49:00;;;;;;;0.90;0.30;;;;;;;;;;4995481;28;20376;-52
2022/09/03 09:51:29;;;;;;;2.28;0.20;;;;;;;;;;4996297;28;20078;-50
2022/09/03 09:54:02;;;;;;;0.52;0.30;;;;;;;;;;4978913;28;20051;-48
2022/09/03 09:56:29;;;;;;;0.55;0.30;;;;;;;;;;4976488;28;20627;-48
2022/09/03 09:59:03;;;;;;;0.75;0.32;;;;;;;;;;4976622;28;20061;-48
2022/09/03 10:01:30;;;;;;;3.28;0.50;;;;;;;;;;4976698;28;20047;-49
2022/09/03 10:03:58;;;;;;;1.02;0.60;;;;;;;;;;4976684;28;20054;-50
2022/09/03 10:09:10;;;;;;;1.02;0.40;;;;;;;;;;4976197;28;20058;-48
2022/09/03 10:11:38;;;;;;;0.63;0.30;;;;;;;;;;4983074;28;20050;-49
2022/09/03 10:14:08;;;;;;;0.52;0.30;;;;;;;;;;4995902;28;20149;-50
2022/09/03 10:16:37;;;;;;;1.10;0.40;;;;;;;;;;5004404;28;20145;-49
2022/09/03 10:19:05;;;;;;;1.23;0.35;;;;;;;;;;5015257;28;20050;-48
2022/09/03 10:21:35;;;;;;;1.08;0.32;;;;;;;;;;5014948;28;20054;-48
2022/09/03 10:24:14;;;;;;;0.30;0.20;;;;;;;;;;5015184;28;20064;-52
2022/09/03 10:26:43;;;;;;;0.57;0.30;;;;;;;;;;4976363;28;20073;-50
2022/09/03 10:29:11;;;;;;;0.57;0.30;;;;;;;;;;4986664;28;20090;-50
2022/09/03 10:31:43;;;;;;;0.60;0.40;;;;;;;;;;4995415;28;20069;-51
2022/09/03 10:34:13;;;;;;;0.22;0.20;;;;;;;;;;4995541;28;20076;-50
2022/09/03 10:36:43;;;;;;;0.80;0.28;;;;;;;;;;4995463;28;20112;-51
2022/09/03 10:39:19;;;;;;;1.50;0.40;;;;;;;;;;4995191;28;20050;-49
2022/09/03 10:41:54;;;;;;;2.90;0.40;;;;;;;;;;4994821;28;20058;-49
2022/09/03 10:44:38;;;;;;;3.38;0.40;;;;;;;;;;4995463;28;20149;-52
2022/09/03 10:47:17;;;;;;;0.65;0.30;;;;;;;;;;4988510;28;20050;-49
2022/09/03 10:49:48;;;;;;;1.60;0.43;;;;;;;;;;4995306;28;20046;-52
2022/09/03 10:52:17;;;;;;;0.77;0.38;;;;;;;;;;4991800;28;20055;-51
2022/09/03 10:54:49;;;;;;;0.63;0.38;;;;;;;;;;4975669;28;20557;-51
2022/09/03 10:57:21;;;;;;;9.45;1.05;;;;;;;;;;4975779;28;20073;-50
2022/09/03 10:59:58;;;;;;;1.83;0.40;;;;;;;;;;4975667;28;20065;-53
2022/09/03 11:02:34;;;;;;;1.88;0.50;;;;;;;;;;4975585;28;20051;-49
2022/09/03 11:05:02;;;;;;;4.90;1.02;;;;;;;;;;4975453;28;20059;-48
2022/09/03 11:07:36;;;;;;;0.52;0.30;;;;;;;;;;4975492;28;20078;-48
2022/09/03 11:10:07;;;;;;;1.50;0.50;;;;;;;;;;4975596;28;20061;-49
2022/09/03 11:12:37;;;;;;;0.47;0.30;;;;;;;;;;4989612;28;20058;-49
2022/09/03 11:15:06;;;;;;;2.40;0.60;;;;;;;;;;4994562;28;20895;-50
2022/09/03 11:17:38;;;;;;;1.23;0.28;;;;;;;;;;5011537;28;20049;-49
2022/09/03 11:20:10;;;;;;;0.90;0.22;;;;;;;;;;5014654;28;20128;-49
2022/09/03 11:22:37;;;;;;;2.05;0.40;;;;;;;;;;4996399;28;20077;-48
2022/09/03 11:25:06;;;;;;;0.35;0.30;;;;;;;;;;4994868;28;20056;-49
2022/09/03 11:27:36;;;;;;;0.85;0.20;;;;;;;;;;4994607;28;20062;-50
2022/09/03 11:30:06;;;;;;;0.40;0.30;;;;;;;;;;4994577;28;20070;-49
2022/09/03 11:32:40;;;;;;;0.45;0.20;;;;;;;;;;4994044;28;20468;-49
2022/09/03 11:35:13;;;;;;;0.15;0.15;;;;;;;;;;4994679;28;20054;-51
2022/09/03 11:37:46;;;;;;;0.52;0.30;;;;;;;;;;4994280;28;20141;-51
2022/09/03 11:40:17;;;;;;;1.08;0.40;;;;;;;;;;4994193;28;20456;-49
2022/09/03 11:42:43;;;;;;;1.10;0.30;;;;;;;;;;4994623;28;20053;-49
2022/09/03 11:45:24;;;;;;;1.70;0.40;;;;;;;;;;4994367;28;20058;-48
2022/09/03 11:47:52;;;;;;;1.25;0.40;;;;;;;;;;4994171;28;20058;-49
2022/09/03 11:50:20;;;;;;;0.60;0.30;;;;;;;;;;4994048;28;20466;-50
2022/09/03 11:52:47;;;;;;;0.63;0.30;;;;;;;;;;4986136;28;20091;-51
2022/09/03 11:55:24;;;;;;;8.43;0.82;;;;;;;;;;4974577;28;20375;-52
2022/09/03 11:57:50;;;;;;;0.40;0.30;;;;;;;;;;4974684;28;20065;-52
2022/09/03 12:00:20;;;;;;;0.40;0.20;;;;;;;;;;4974823;28;20047;-49
2022/09/03 12:02:47;;;;;;;0.63;0.22;;;;;;;;;;4974348;28;20055;-50
2022/09/03 12:05:20;;;;;;;2.17;0.20;;;;;;;;;;4974721;28;20066;-49
2022/09/03 12:08:04;;;;;;;1.05;0.28;;;;;;;;;;4974396;28;20368;-52
2022/09/03 12:10:35;;;;;;;0.60;0.30;;;;;;;;;;4974446;28;20381;-52
2022/09/03 12:13:08;;;;;;;0.22;0.22;;;;;;;;;;4992100;28;20058;-52
2022/09/03 12:15:45;;;;;;;0.20;0.20;;;;;;;;;;4994722;28;20054;-51
2022/09/03 12:18:19;;;;;;;0.88;0.40;;;;;;;;;;5000901;28;20471;-51
2022/09/03 12:20:47;;;;;;;0.77;0.22;;;;;;;;;;4993690;28;20478;-49
2022/09/03 12:23:15;;;;;;;2.60;0.30;;;;;;;;;;4993376;28;20530;-50
2022/09/03 12:25:46;;;;;;;0.60;0.20;;;;;;;;;;4993528;28;20053;-51
2022/09/03 12:28:16;;;;;;;0.28;0.17;;;;;;;;;;4993731;28;20133;-52
2022/09/03 12:30:42;;;;;;;0.65;0.25;;;;;;;;;;4993889;28;20051;-53
2022/09/03 12:33:09;;;;;;;1.60;0.52;;;;;;;;;;4993445;28;20062;-49
2022/09/03 12:35:36;;;;;;;1.88;0.40;;;;;;;;;;4993833;28;20069;-49
2022/09/03 12:38:03;;;;;;;2.72;0.60;;;;;;;;;;4993739;28;20054;-51
2022/09/03 12:40:30;;;;;;;1.83;0.38;;;;;;;;;;4993459;28;20427;-50
2022/09/03 12:43:11;;;;;;;0.52;0.30;;;;;;;;;;4993636;28;20061;-51
2022/09/03 12:45:43;;;;;;;7.97;0.77;;;;;;;;;;4993463;28;20046;-50
2022/09/03 12:48:14;;;;;;;1.80;0.38;;;;;;;;;;4993270;28;20060;-52
2022/09/03 12:50:40;;;;;;;1.95;0.50;;;;;;;;;;4993697;28;20092;-51
2022/09/03 12:53:09;;;;;;;1.45;0.30;;;;;;;;;;4982984;28;20061;-49
2022/09/03 12:55:36;;;;;;;0.43;0.20;;;;;;;;;;4974320;28;20070;-51
2022/09/03 12:58:05;;;;;;;1.40;0.30;;;;;;;;;;4974098;28;20125;-52
2022/09/03 13:00:33;;;;;;;1.20;0.20;;;;;;;;;;4973772;28;20082;-52
2022/09/03 13:03:00;;;;;;;1.85;0.38;;;;;;;;;;4973465;28;20055;-49
2022/09/03 13:05:31;;;;;;;0.85;0.35;;;;;;;;;;4977769;28;20091;-50
2022/09/03 13:07:59;;;;;;;0.73;0.40;;;;;;;;;;4977927;28;20324;-49
2022/09/03 13:10:28;;;;;;;0.95;0.40;;;;;;;;;;4977815;28;20047;-51
2022/09/03 13:12:58;;;;;;;1.38;0.47;;;;;;;;;;4994495;28;20065;-51
2022/09/03 13:15:25;;;;;;;1.05;0.40;;;;;;;;;;4978048;28;20065;-50
2022/09/03 13:17:59;;;;;;;0.70;0.20;;;;;;;;;;5015680;28;20462;-50
2022/09/03 13:20:32;;;;;;;0.47;0.30;;;;;;;;;;5016546;28;20057;-49
2022/09/03 13:23:10;;;;;;;1.75;0.63;;;;;;;;;;5016299;28;20062;-52
2022/09/03 13:25:44;;;;;;;0.95;0.35;;;;;;;;;;5016622;28;20061;-51
2022/09/03 13:28:18;;;;;;;1.60;0.40;;;;;;;;;;5013368;28;20054;-49
2022/09/03 13:30:48;;;;;;;3.55;0.60;;;;;;;;;;4996881;28;20050;-50
2022/09/03 13:33:18;;;;;;;1.80;0.30;;;;;;;;;;4996532;28;20054;-49
2022/09/03 13:35:47;;;;;;;0.43;0.20;;;;;;;;;;4996581;28;20451;-49
2022/09/03 13:38:20;;;;;;;0.52;0.30;;;;;;;;;;4996899;28;20058;-50
2022/09/03 13:40:49;;;;;;;0.85;0.30;;;;;;;;;;4996071;28;20495;-50
2022/09/03 13:43:21;;;;;;;2.78;0.47;;;;;;;;;;4996605;28;20046;-53
2022/09/03 13:45:51;;;;;;;5.68;0.50;;;;;;;;;;4996676;28;20116;-51
2022/09/03 13:51:09;;;;;;;2.47;0.60;;;;;;;;;;4996169;28;20117;-52
2022/09/03 13:53:41;;;;;;;0.55;0.30;;;;;;;;;;4982132;28;20055;-50
2022/09/03 13:56:15;;;;;;;1.10;0.43;;;;;;;;;;4977024;28;20058;-49
2022/09/03 13:58:44;;;;;;;0.77;0.40;;;;;;;;;;4976652;28;20066;-50
2022/09/03 14:01:15;;;;;;;1.58;0.32;;;;;;;;;;4976724;28;20326;-52
2022/09/03 14:03:45;;;;;;;0.30;0.30;;;;;;;;;;4976817;28;20055;-49
2022/09/03 14:06:16;;;;;;;0.93;0.47;;;;;;;;;;4976410;28;20054;-50
2022/09/03 14:08:52;;;;;;;0.95;0.30;;;;;;;;;;4976608;28;20055;-49
2022/09/03 14:11:24;;;;;;;2.13;0.30;;;;;;;;;;4993238;28;20065;-48
2022/09/03 14:13:59;;;;;;;0.75;0.30;;;;;;;;;;4996125;28;20050;-51
2022/09/03 14:16:29;;;;;;;0.95;0.38;;;;;;;;;;5003519;28;20056;-50
2022/09/03 14:18:58;;;;;;;9.18;0.93;;;;;;;;;;5014941;28;20474;-50
2022/09/03 14:21:25;;;;;;;2.05;0.50;;;;;;;;;;5015432;28;20125;-52
2022/09/03 14:23:55;;;;;;;0.88;0.43;;;;;;;;;;5014848;28;20062;-52
2022/09/03 14:26:26;;;;;;;2.40;0.70;;;;;;;;;;5015160;28;20050;-53
2022/09/03 14:28:58;;;;;;;1.65;0.50;;;;;;;;;;5006119;28;20058;-49
2022/09/03 14:31:29;;;;;;;4.25;0.50;;;;;;;;;;4995017;28;20129;-48
2022/09/03 14:33:59;;;;;;;1.00;0.50;;;;;;;;;;4995506;28;20054;-49
2022/09/03 14:36:28;;;;;;;0.40;0.40;;;;;;;;;;4995527;28;20061;-51
2022/09/03 14:39:03;;;;;;;1.58;0.50;;;;;;;;;;4995341;28;20367;-50
2022/09/03 14:41:41;;;;;;;1.38;0.70;;;;;;;;;;4976118;28;20097;-49
2022/09/03 14:44:27;;;;;;;2.35;0.85;;;;;;;;;;4975949;28;20054;-49
2022/09/03 14:47:00;;;;;;;2.20;0.40;;;;;;;;;;4976028;28;20058;-52
2022/09/03 14:49:39;;;;;;;2.10;0.40;;;;;;;;;;4975898;28;20057;-49
2022/09/03 14:52:16;;;;;;;0.95;0.50;;;;;;;;;;4978045;28;20057;-49
2022/09/03 14:54:52;;;;;;;1.40;0.50;;;;;;;;;;4995293;28;20058;-52
2022/09/03 14:57:35;;;;;;;0.60;0.40;;;;;;;;;;4995277;28;20061;-52
2022/09/03 15:00:04;;;;;;;0.60;0.40;;;;;;;;;;4995115;28;20058;-50
2022/09/03 15:02:46;;;;;;;2.00;0.47;;;;;;;;;;4995045;28;20050;-49
2022/09/03 15:05:15;;;;;;;1.25;0.50;;;;;;;;;;4994881;28;20058;-49
2022/09/03 15:07:43;;;;;;;5.18;0.63;;;;;;;;;;4994808;28;20050;-49